Brumley, MO

5:07 PM CDT on August 30, 2014 (GMT -0500)
Fine Memorial | Change Station
CLOSE
Current Station
Airport
Location: Kaiser,
Elevation: 869 ft
Nearby Weather Stations

Elev 869 ft 38.10 °N, 92.55 °W | Updated 12 minutes ago

Scattered Clouds
Scattered Clouds
81 °F
Feels Like 84 °F
N
6
Wind Variable Wind from SE

Today
High -- | Low -- °F
--% Chance of Precip.
Yesterday
High -- | Low -- °F
Precip. -- in
6:38 AM 7:42 PM
Waxing Crescent, 25% visible
Pressure 29.90 in
Visibility 10.0 miles
Clouds Scattered Clouds 9000 ft
Heat Index 84 °F
Dew Point 70 °F
Humidity 70%
Rainfall 0.00 in
Snow Depth Not available.
UV 3 out of 12
Pollen 8.30 out of 12
Air Quality Not available.
Flu Activity Not available.
METAR KAIZ 302155Z AUTO 14005KT 10SM SCT090 27/21 A2990 RMK AO1

More Conditions Fewer Conditions

Pressure 29.90 in
Visibility 10.0 miles
Clouds Scattered Clouds 9000 ft
Heat Index 84 °F
Dew Point 70 °F
Humidity 70%
Rainfall 0.00 in
Snow Depth Not available.
UV 3 out of 12
Pollen 8.30 out of 12
Air Quality Not available.
Flu Activity Not available.
METAR KAIZ 302155Z AUTO 14005KT 10SM SCT090 27/21 A2990 RMK AO1

More Conditions Fewer Conditions

10-Day Weather Forecast

Almanac

Astronomy

Aug. 30, 2014 Rise Set
Actual Time 6:38 AM CDT 7:42 PM CDT
Civil Twilight 6:11 AM CDT 8:09 PM CDT
Nautical Twilight 5:38 AM CDT 8:41 PM CDT
Astronomical Twilight 5:05 AM CDT 9:15 PM CDT
Moon 11:21 AM CDT 10:22 PM CDT
Length of Visible Light 13h 58m
Length of Day
13h 04m
Tomorrow will be 2m 20s shorter.
Waxing Crescent, 25% of the Moon is Illuminated
Today
Waxing Crescent
Sep 2
First Quarter
Sep 8
Full
Sep 15
Last Quarter
Sep 24
New

Today's Extremes

State Highs State Lows

Community

WunderPhotos

Upload Photos

1,748,657 photos uploaded!

WunderBlogs® & News

Nearby

Snow Depth

Station Depth Elevation
No new snow has been reported.

Earthquake Activity

City Distance Mag. Time & Date
No recent earthquake activity has been reported nearby.
Minimum magnitude displayed is 2.5.

Coastal Water Temperatures

Place Temperature
No Stations Reporting

Nearby Weather Stations